sensor_id;sensor_type;location;lat;lon;timestamp;temperature;humidity
12460;DHT22;6295;49.452;8.466;2022-07-05T00:06:22;20.20;91.70
12460;DHT22;6295;49.452;8.466;2022-07-05T00:10:25;20.10;91.70
12460;DHT22;6295;49.452;8.466;2022-07-05T00:14:27;20.10;91.80
12460;DHT22;6295;49.452;8.466;2022-07-05T00:18:30;20.10;92.30
12460;DHT22;6295;49.452;8.466;2022-07-05T00:22:33;20.10;92.90
12460;DHT22;6295;49.452;8.466;2022-07-05T00:26:35;20.00;93.30
12460;DHT22;6295;49.452;8.466;2022-07-05T00:30:37;19.90;93.40
12460;DHT22;6295;49.452;8.466;2022-07-05T00:46:48;19.60;93.80
12460;DHT22;6295;49.452;8.466;2022-07-05T00:50:52;19.60;93.70
12460;DHT22;6295;49.452;8.466;2022-07-05T00:54:54;19.50;93.20
12460;DHT22;6295;49.452;8.466;2022-07-05T00:58:57;19.60;93.00
12460;DHT22;6295;49.452;8.466;2022-07-05T01:02:59;19.50;92.80
12460;DHT22;6295;49.452;8.466;2022-07-05T01:07:04;19.50;92.80
12460;DHT22;6295;49.452;8.466;2022-07-05T01:11:07;19.50;92.80
12460;DHT22;6295;49.452;8.466;2022-07-05T01:23:17;19.60;93.20
12460;DHT22;6295;49.452;8.466;2022-07-05T01:27:20;19.50;93.20
12460;DHT22;6295;49.452;8.466;2022-07-05T01:31:22;19.50;93.30
12460;DHT22;6295;49.452;8.466;2022-07-05T01:35:24;19.60;93.50
12460;DHT22;6295;49.452;8.466;2022-07-05T01:43:30;19.50;94.00
12460;DHT22;6295;49.452;8.466;2022-07-05T01:47:36;19.40;94.00
12460;DHT22;6295;49.452;8.466;2022-07-05T01:51:42;19.40;94.50
12460;DHT22;6295;49.452;8.466;2022-07-05T01:55:48;19.40;95.20
12460;DHT22;6295;49.452;8.466;2022-07-05T02:03:53;19.20;96.60
12460;DHT22;6295;49.452;8.466;2022-07-05T02:07:55;19.10;97.30
12460;DHT22;6295;49.452;8.466;2022-07-05T02:11:59;18.90;98.20
12460;DHT22;6295;49.452;8.466;2022-07-05T02:16:01;18.80;99.10
12460;DHT22;6295;49.452;8.466;2022-07-05T02:24:07;18.50;99.90
12460;DHT22;6295;49.452;8.466;2022-07-05T02:28:11;18.40;99.90
12460;DHT22;6295;49.452;8.466;2022-07-05T02:32:14;18.30;99.90
12460;DHT22;6295;49.452;8.466;2022-07-05T02:36:16;18.20;99.90
12460;DHT22;6295;49.452;8.466;2022-07-05T02:44:22;18.00;99.90
12460;DHT22;6295;49.452;8.466;2022-07-05T02:48:24;17.90;99.90
12460;DHT22;6295;49.452;8.466;2022-07-05T02:52:27;17.80;99.90
12460;DHT22;6295;49.452;8.466;2022-07-05T03:00:33;17.70;99.90
12460;DHT22;6295;49.452;8.466;2022-07-05T03:04:35;17.70;99.90
12460;DHT22;6295;49.452;8.466;2022-07-05T03:08:37;17.60;99.90
12460;DHT22;6295;49.452;8.466;2022-07-05T03:12:40;17.60;99.90
12460;DHT22;6295;49.452;8.466;2022-07-05T03:16:43;17.50;99.90
12460;DHT22;6295;49.452;8.466;2022-07-05T03:24:48;17.40;99.90
12460;DHT22;6295;49.452;8.466;2022-07-05T03:28:50;17.30;99.90
12460;DHT22;6295;49.452;8.466;2022-07-05T03:32:54;17.30;99.90
12460;DHT22;6295;49.452;8.466;2022-07-05T03:36:56;17.20;99.90
12460;DHT22;6295;49.452;8.466;2022-07-05T03:40:58;17.20;99.90
12460;DHT22;6295;49.452;8.466;2022-07-05T03:49:04;17.10;99.90
12460;DHT22;6295;49.452;8.466;2022-07-05T03:53:07;17.00;99.90
12460;DHT22;6295;49.452;8.466;2022-07-05T03:57:09;17.00;99.90
12460;DHT22;6295;49.452;8.466;2022-07-05T04:01:11;16.90;99.90
12460;DHT22;6295;49.452;8.466;2022-07-05T04:09:17;16.90;99.90
12460;DHT22;6295;49.452;8.466;2022-07-05T04:17:22;16.90;99.90
12460;DHT22;6295;49.452;8.466;2022-07-05T04:21:26;16.90;99.90
12460;DHT22;6295;49.452;8.466;2022-07-05T04:25:28;16.90;99.90
12460;DHT22;6295;49.452;8.466;2022-07-05T04:29:31;16.90;99.90
12460;DHT22;6295;49.452;8.466;2022-07-05T04:33:33;17.00;99.90
12460;DHT22;6295;49.452;8.466;2022-07-05T04:37:37;17.00;99.90
12460;DHT22;6295;49.452;8.466;2022-07-05T04:41:40;17.10;99.90
12460;DHT22;6295;49.452;8.466;2022-07-05T04:49:45;17.30;99.90
12460;DHT22;6295;49.452;8.466;2022-07-05T04:53:49;17.40;99.90
12460;DHT22;6295;49.452;8.466;2022-07-05T04:57:51;17.60;99.90
12460;DHT22;6295;49.452;8.466;2022-07-05T05:01:53;17.70;99.90
12460;DHT22;6295;49.452;8.466;2022-07-05T05:05:56;17.80;99.90
12460;DHT22;6295;49.452;8.466;2022-07-05T05:09:59;18.00;99.90
12460;DHT22;6295;49.452;8.466;2022-07-05T05:14:01;18.10;99.90
12460;DHT22;6295;49.452;8.466;2022-07-05T05:18:04;18.20;99.90
12460;DHT22;6295;49.452;8.466;2022-07-05T05:22:06;18.30;99.90
12460;DHT22;6295;49.452;8.466;2022-07-05T05:26:10;18.40;99.90
12460;DHT22;6295;49.452;8.466;2022-07-05T05:30:13;18.50;99.90
12460;DHT22;6295;49.452;8.466;2022-07-05T05:38:18;18.60;99.90
12460;DHT22;6295;49.452;8.466;2022-07-05T05:42:21;18.70;99.90
12460;DHT22;6295;49.452;8.466;2022-07-05T05:46:24;18.80;99.90
12460;DHT22;6295;49.452;8.466;2022-07-05T05:50:28;18.90;99.90
12460;DHT22;6295;49.452;8.466;2022-07-05T05:54:30;19.00;99.90
12460;DHT22;6295;49.452;8.466;2022-07-05T05:58:34;19.10;99.90
12460;DHT22;6295;49.452;8.466;2022-07-05T06:10:41;19.40;99.90
12460;DHT22;6295;49.452;8.466;2022-07-05T06:14:45;19.50;99.90
12460;DHT22;6295;49.452;8.466;2022-07-05T06:18:47;19.60;99.90
12460;DHT22;6295;49.452;8.466;2022-07-05T06:22:51;19.70;99.90
12460;DHT22;6295;49.452;8.466;2022-07-05T06:26:54;19.70;99.90
12460;DHT22;6295;49.452;8.466;2022-07-05T06:30:59;19.80;99.90
12460;DHT22;6295;49.452;8.466;2022-07-05T06:35:03;19.90;99.90
12460;DHT22;6295;49.452;8.466;2022-07-05T06:39:07;20.00;99.90
12460;DHT22;6295;49.452;8.466;2022-07-05T06:43:12;20.10;99.90
12460;DHT22;6295;49.452;8.466;2022-07-05T06:47:18;20.20;99.90
12460;DHT22;6295;49.452;8.466;2022-07-05T06:51:21;20.30;99.90
12460;DHT22;6295;49.452;8.466;2022-07-05T06:55:24;20.50;99.90
12460;DHT22;6295;49.452;8.466;2022-07-05T06:59:26;20.50;99.90
12460;DHT22;6295;49.452;8.466;2022-07-05T07:03:31;20.60;99.90
12460;DHT22;6295;49.452;8.466;2022-07-05T07:07:34;20.80;99.90
12460;DHT22;6295;49.452;8.466;2022-07-05T07:11:53;20.90;99.90
12460;DHT22;6295;49.452;8.466;2022-07-05T07:15:56;21.00;99.50
12460;DHT22;6295;49.452;8.466;2022-07-05T07:20:00;21.00;99.20
12460;DHT22;6295;49.452;8.466;2022-07-05T07:24:02;21.10;99.30
12460;DHT22;6295;49.452;8.466;2022-07-05T07:36:12;21.40;99.20
12460;DHT22;6295;49.452;8.466;2022-07-05T07:48:22;21.70;98.50
12460;DHT22;6295;49.452;8.466;2022-07-05T07:52:28;21.80;97.60
12460;DHT22;6295;49.452;8.466;2022-07-05T07:56:34;21.90;97.00
12460;DHT22;6295;49.452;8.466;2022-07-05T08:00:36;22.00;97.30
12460;DHT22;6295;49.452;8.466;2022-07-05T08:08:43;22.40;97.20
12460;DHT22;6295;49.452;8.466;2022-07-05T08:12:46;22.60;96.00
12460;DHT22;6295;49.452;8.466;2022-07-05T08:16:49;22.60;96.00
12460;DHT22;6295;49.452;8.466;2022-07-05T08:20:53;22.70;95.60
12460;DHT22;6295;49.452;8.466;2022-07-05T08:25:14;22.80;95.60
12460;DHT22;6295;49.452;8.466;2022-07-05T08:29:18;22.80;95.40
12460;DHT22;6295;49.452;8.466;2022-07-05T08:33:21;22.90;95.40
12460;DHT22;6295;49.452;8.466;2022-07-05T08:37:26;23.00;94.40
12460;DHT22;6295;49.452;8.466;2022-07-05T08:41:34;23.10;95.00
12460;DHT22;6295;49.452;8.466;2022-07-05T08:45:39;23.20;93.40
12460;DHT22;6295;49.452;8.466;2022-07-05T08:49:44;23.30;91.70
12460;DHT22;6295;49.452;8.466;2022-07-05T08:53:52;23.40;92.70
12460;DHT22;6295;49.452;8.466;2022-07-05T08:57:58;23.50;91.50
12460;DHT22;6295;49.452;8.466;2022-07-05T09:02:01;23.60;92.10
12460;DHT22;6295;49.452;8.466;2022-07-05T09:06:07;23.70;93.00
12460;DHT22;6295;49.452;8.466;2022-07-05T09:10:11;23.80;93.30
12460;DHT22;6295;49.452;8.466;2022-07-05T09:18:42;24.10;92.50
12460;DHT22;6295;49.452;8.466;2022-07-05T09:22:47;24.20;92.60
12460;DHT22;6295;49.452;8.466;2022-07-05T09:30:55;24.50;91.30
12460;DHT22;6295;49.452;8.466;2022-07-05T09:43:14;24.50;87.60
12460;DHT22;6295;49.452;8.466;2022-07-05T09:47:19;24.70;87.70
12460;DHT22;6295;49.452;8.466;2022-07-05T09:55:25;24.80;86.40
12460;DHT22;6295;49.452;8.466;2022-07-05T09:59:28;24.90;87.30
12460;DHT22;6295;49.452;8.466;2022-07-05T10:03:32;25.10;87.20
12460;DHT22;6295;49.452;8.466;2022-07-05T10:07:53;25.10;86.30
12460;DHT22;6295;49.452;8.466;2022-07-05T10:15:59;25.10;86.40
12460;DHT22;6295;49.452;8.466;2022-07-05T10:20:04;25.20;86.70
12460;DHT22;6295;49.452;8.466;2022-07-05T10:28:13;25.60;84.40
12460;DHT22;6295;49.452;8.466;2022-07-05T10:32:17;25.50;82.60
12460;DHT22;6295;49.452;8.466;2022-07-05T10:40:27;25.50;85.60
12460;DHT22;6295;49.452;8.466;2022-07-05T10:44:34;25.60;84.80
12460;DHT22;6295;49.452;8.466;2022-07-05T10:48:39;25.70;82.20
12460;DHT22;6295;49.452;8.466;2022-07-05T10:53:01;25.80;83.30
12460;DHT22;6295;49.452;8.466;2022-07-05T10:57:22;26.00;84.50
12460;DHT22;6295;49.452;8.466;2022-07-05T11:01:42;26.20;85.70
12460;DHT22;6295;49.452;8.466;2022-07-05T11:05:45;26.30;84.90
12460;DHT22;6295;49.452;8.466;2022-07-05T11:10:01;26.20;82.90
12460;DHT22;6295;49.452;8.466;2022-07-05T11:18:31;25.90;83.20
12460;DHT22;6295;49.452;8.466;2022-07-05T11:22:36;25.90;82.50
12460;DHT22;6295;49.452;8.466;2022-07-05T11:30:47;25.90;80.50
12460;DHT22;6295;49.452;8.466;2022-07-05T11:34:52;26.10;80.10
12460;DHT22;6295;49.452;8.466;2022-07-05T11:39:09;26.40;81.20
12460;DHT22;6295;49.452;8.466;2022-07-05T11:43:14;26.60;79.40
12460;DHT22;6295;49.452;8.466;2022-07-05T11:47:27;26.60;76.50
12460;DHT22;6295;49.452;8.466;2022-07-05T11:51:29;26.50;75.00
12460;DHT22;6295;49.452;8.466;2022-07-05T11:55:32;26.40;75.50
12460;DHT22;6295;49.452;8.466;2022-07-05T11:59:35;26.30;77.10
12460;DHT22;6295;49.452;8.466;2022-07-05T12:03:38;26.10;73.90
12460;DHT22;6295;49.452;8.466;2022-07-05T12:11:51;26.10;75.10
12460;DHT22;6295;49.452;8.466;2022-07-05T12:16:13;26.20;80.80
12460;DHT22;6295;49.452;8.466;2022-07-05T12:28:25;26.60;75.30
12460;DHT22;6295;49.452;8.466;2022-07-05T12:32:30;26.60;75.10
12460;DHT22;6295;49.452;8.466;2022-07-05T12:44:39;26.40;72.10
12460;DHT22;6295;49.452;8.466;2022-07-05T12:48:43;26.40;72.60
12460;DHT22;6295;49.452;8.466;2022-07-05T12:53:10;26.50;73.00
12460;DHT22;6295;49.452;8.466;2022-07-05T12:57:30;26.50;75.80
12460;DHT22;6295;49.452;8.466;2022-07-05T13:01:49;26.70;76.40
12460;DHT22;6295;49.452;8.466;2022-07-05T13:06:02;26.80;76.30
12460;DHT22;6295;49.452;8.466;2022-07-05T13:10:18;26.90;75.70
12460;DHT22;6295;49.452;8.466;2022-07-05T13:18:25;27.20;73.70
12460;DHT22;6295;49.452;8.466;2022-07-05T13:22:29;27.30;73.30
12460;DHT22;6295;49.452;8.466;2022-07-05T13:26:31;27.20;70.50
12460;DHT22;6295;49.452;8.466;2022-07-05T13:30:33;27.10;70.20
12460;DHT22;6295;49.452;8.466;2022-07-05T13:34:35;27.10;71.10
12460;DHT22;6295;49.452;8.466;2022-07-05T13:38:39;27.10;72.00
12460;DHT22;6295;49.452;8.466;2022-07-05T13:42:41;27.20;72.40
12460;DHT22;6295;49.452;8.466;2022-07-05T13:46:44;27.30;71.10
12460;DHT22;6295;49.452;8.466;2022-07-05T13:50:46;27.40;69.40
12460;DHT22;6295;49.452;8.466;2022-07-05T13:54:50;27.50;70.20
12460;DHT22;6295;49.452;8.466;2022-07-05T13:58:52;27.60;71.00
12460;DHT22;6295;49.452;8.466;2022-07-05T14:02:55;27.50;70.30
12460;DHT22;6295;49.452;8.466;2022-07-05T14:06:57;27.40;69.30
12460;DHT22;6295;49.452;8.466;2022-07-05T14:11:01;27.50;70.40
12460;DHT22;6295;49.452;8.466;2022-07-05T14:15:04;27.70;66.70
12460;DHT22;6295;49.452;8.466;2022-07-05T14:19:06;27.80;62.60
12460;DHT22;6295;49.452;8.466;2022-07-05T14:23:08;27.90;66.00
12460;DHT22;6295;49.452;8.466;2022-07-05T14:27:12;28.00;62.10
12460;DHT22;6295;49.452;8.466;2022-07-05T14:31:15;28.10;61.20
12460;DHT22;6295;49.452;8.466;2022-07-05T14:39:21;28.30;58.40
12460;DHT22;6295;49.452;8.466;2022-07-05T14:47:28;28.40;59.90
12460;DHT22;6295;49.452;8.466;2022-07-05T14:51:30;28.40;59.50
12460;DHT22;6295;49.452;8.466;2022-07-05T14:59:38;28.70;62.40
12460;DHT22;6295;49.452;8.466;2022-07-05T15:03:40;28.90;61.50
12460;DHT22;6295;49.452;8.466;2022-07-05T15:11:46;29.20;59.90
12460;DHT22;6295;49.452;8.466;2022-07-05T15:15:51;29.20;58.70
12460;DHT22;6295;49.452;8.466;2022-07-05T15:19:54;29.30;57.40
12460;DHT22;6295;49.452;8.466;2022-07-05T15:23:58;29.30;56.60
12460;DHT22;6295;49.452;8.466;2022-07-05T15:28:01;29.40;58.20
12460;DHT22;6295;49.452;8.466;2022-07-05T15:32:07;29.30;55.80
12460;DHT22;6295;49.452;8.466;2022-07-05T15:40:12;28.80;57.10
12460;DHT22;6295;49.452;8.466;2022-07-05T15:44:14;28.60;58.40
12460;DHT22;6295;49.452;8.466;2022-07-05T15:48:18;28.40;57.60
12460;DHT22;6295;49.452;8.466;2022-07-05T15:56:24;28.10;58.40
12460;DHT22;6295;49.452;8.466;2022-07-05T16:00:26;28.10;58.70
12460;DHT22;6295;49.452;8.466;2022-07-05T16:04:30;28.30;60.90
12460;DHT22;6295;49.452;8.466;2022-07-05T16:08:32;28.60;58.90
12460;DHT22;6295;49.452;8.466;2022-07-05T16:12:35;28.80;58.90
12460;DHT22;6295;49.452;8.466;2022-07-05T16:16:38;29.00;59.00
12460;DHT22;6295;49.452;8.466;2022-07-05T16:20:42;29.00;58.40
12460;DHT22;6295;49.452;8.466;2022-07-05T16:28:49;28.90;57.30
12460;DHT22;6295;49.452;8.466;2022-07-05T16:32:53;28.90;57.30
12460;DHT22;6295;49.452;8.466;2022-07-05T16:36:58;29.00;55.90
12460;DHT22;6295;49.452;8.466;2022-07-05T16:41:06;29.00;55.80
12460;DHT22;6295;49.452;8.466;2022-07-05T16:45:09;28.90;55.50
12460;DHT22;6295;49.452;8.466;2022-07-05T16:49:11;28.70;56.00
12460;DHT22;6295;49.452;8.466;2022-07-05T16:53:15;28.60;56.70
12460;DHT22;6295;49.452;8.466;2022-07-05T16:57:17;28.50;56.40
12460;DHT22;6295;49.452;8.466;2022-07-05T17:01:20;28.60;57.00
12460;DHT22;6295;49.452;8.466;2022-07-05T17:05:25;28.60;55.60
12460;DHT22;6295;49.452;8.466;2022-07-05T17:09:30;28.70;58.00
12460;DHT22;6295;49.452;8.466;2022-07-05T17:13:34;28.70;56.20
12460;DHT22;6295;49.452;8.466;2022-07-05T17:17:39;28.60;56.60
12460;DHT22;6295;49.452;8.466;2022-07-05T17:21:42;28.50;56.60
12460;DHT22;6295;49.452;8.466;2022-07-05T17:25:45;28.30;55.80
12460;DHT22;6295;49.452;8.466;2022-07-05T17:41:57;28.10;56.00
12460;DHT22;6295;49.452;8.466;2022-07-05T17:50:02;28.20;55.70
12460;DHT22;6295;49.452;8.466;2022-07-05T17:54:05;28.10;56.20
12460;DHT22;6295;49.452;8.466;2022-07-05T17:58:09;28.00;56.00
12460;DHT22;6295;49.452;8.466;2022-07-05T18:02:11;28.00;56.80
12460;DHT22;6295;49.452;8.466;2022-07-05T18:06:14;28.10;57.60
12460;DHT22;6295;49.452;8.466;2022-07-05T18:14:22;28.10;56.00
12460;DHT22;6295;49.452;8.466;2022-07-05T18:18:24;28.00;56.50
12460;DHT22;6295;49.452;8.466;2022-07-05T18:22:28;28.10;56.20
12460;DHT22;6295;49.452;8.466;2022-07-05T18:26:32;28.10;56.50
12460;DHT22;6295;49.452;8.466;2022-07-05T18:30:38;27.90;56.50
12460;DHT22;6295;49.452;8.466;2022-07-05T18:34:41;27.80;57.30
12460;DHT22;6295;49.452;8.466;2022-07-05T18:38:44;27.60;57.80
12460;DHT22;6295;49.452;8.466;2022-07-05T18:42:46;27.30;59.40
12460;DHT22;6295;49.452;8.466;2022-07-05T18:46:49;27.20;62.20
12460;DHT22;6295;49.452;8.466;2022-07-05T18:50:52;27.10;62.90
12460;DHT22;6295;49.452;8.466;2022-07-05T18:54:55;27.10;63.70
12460;DHT22;6295;49.452;8.466;2022-07-05T18:58:57;26.90;64.50
12460;DHT22;6295;49.452;8.466;2022-07-05T19:03:01;26.80;65.30
12460;DHT22;6295;49.452;8.466;2022-07-05T19:07:04;26.60;66.10
12460;DHT22;6295;49.452;8.466;2022-07-05T19:11:23;26.40;66.20
12460;DHT22;6295;49.452;8.466;2022-07-05T19:19:46;25.90;67.90
12460;DHT22;6295;49.452;8.466;2022-07-05T19:27:51;25.60;68.00
12460;DHT22;6295;49.452;8.466;2022-07-05T19:35:57;25.40;68.30
12460;DHT22;6295;49.452;8.466;2022-07-05T19:44:04;25.00;69.00
12460;DHT22;6295;49.452;8.466;2022-07-05T19:48:08;24.90;68.90
12460;DHT22;6295;49.452;8.466;2022-07-05T19:52:14;24.70;68.70
12460;DHT22;6295;49.452;8.466;2022-07-05T20:00:20;24.60;69.60
12460;DHT22;6295;49.452;8.466;2022-07-05T20:04:22;24.40;69.70
12460;DHT22;6295;49.452;8.466;2022-07-05T20:08:25;24.30;70.10
12460;DHT22;6295;49.452;8.466;2022-07-05T20:12:28;24.10;69.70
12460;DHT22;6295;49.452;8.466;2022-07-05T20:16:30;24.00;70.50
12460;DHT22;6295;49.452;8.466;2022-07-05T20:20:34;23.90;71.00
12460;DHT22;6295;49.452;8.466;2022-07-05T20:24:39;23.90;71.40
12460;DHT22;6295;49.452;8.466;2022-07-05T20:28:41;23.80;71.50
12460;DHT22;6295;49.452;8.466;2022-07-05T20:36:48;23.70;71.90
12460;DHT22;6295;49.452;8.466;2022-07-05T20:40:52;23.60;72.60
12460;DHT22;6295;49.452;8.466;2022-07-05T20:44:54;23.50;72.80
12460;DHT22;6295;49.452;8.466;2022-07-05T20:53:00;23.40;73.70
12460;DHT22;6295;49.452;8.466;2022-07-05T20:57:04;23.30;74.40
12460;DHT22;6295;49.452;8.466;2022-07-05T21:01:07;23.30;74.20
12460;DHT22;6295;49.452;8.466;2022-07-05T21:09:12;23.20;73.40
12460;DHT22;6295;49.452;8.466;2022-07-05T21:13:16;23.20;72.70
12460;DHT22;6295;49.452;8.466;2022-07-05T21:17:18;23.10;72.20
12460;DHT22;6295;49.452;8.466;2022-07-05T21:21:20;23.00;72.50
12460;DHT22;6295;49.452;8.466;2022-07-05T21:25:22;23.00;73.70
12460;DHT22;6295;49.452;8.466;2022-07-05T21:29:26;22.90;73.50
12460;DHT22;6295;49.452;8.466;2022-07-05T21:33:28;22.80;74.30
12460;DHT22;6295;49.452;8.466;2022-07-05T21:37:31;22.70;73.90
12460;DHT22;6295;49.452;8.466;2022-07-05T21:41:33;22.60;73.80
12460;DHT22;6295;49.452;8.466;2022-07-05T21:45:37;22.60;74.00
12460;DHT22;6295;49.452;8.466;2022-07-05T21:49:39;22.50;74.30
12460;DHT22;6295;49.452;8.466;2022-07-05T21:53:41;22.50;74.40
12460;DHT22;6295;49.452;8.466;2022-07-05T21:57:43;22.40;74.10
12460;DHT22;6295;49.452;8.466;2022-07-05T22:01:47;22.40;73.90
12460;DHT22;6295;49.452;8.466;2022-07-05T22:10:09;22.30;74.70
12460;DHT22;6295;49.452;8.466;2022-07-05T22:14:11;22.20;74.60
12460;DHT22;6295;49.452;8.466;2022-07-05T22:22:17;22.10;75.40
12460;DHT22;6295;49.452;8.466;2022-07-05T22:26:19;22.00;76.10
12460;DHT22;6295;49.452;8.466;2022-07-05T22:30:22;21.90;76.70
12460;DHT22;6295;49.452;8.466;2022-07-05T22:34:25;21.90;77.50
12460;DHT22;6295;49.452;8.466;2022-07-05T22:38:27;21.80;78.30
12460;DHT22;6295;49.452;8.466;2022-07-05T22:46:32;21.70;78.80
12460;DHT22;6295;49.452;8.466;2022-07-05T22:50:36;21.60;78.30
12460;DHT22;6295;49.452;8.466;2022-07-05T22:54:38;21.60;78.60
12460;DHT22;6295;49.452;8.466;2022-07-05T23:13:47;21.30;80.40
12460;DHT22;6295;49.452;8.466;2022-07-05T23:17:49;21.20;81.60
12460;DHT22;6295;49.452;8.466;2022-07-05T23:21:51;21.00;81.40
12460;DHT22;6295;49.452;8.466;2022-07-05T23:25:53;20.90;82.00
12460;DHT22;6295;49.452;8.466;2022-07-05T23:29:58;20.90;82.30
12460;DHT22;6295;49.452;8.466;2022-07-05T23:34:00;20.80;82.60
12460;DHT22;6295;49.452;8.466;2022-07-05T23:38:02;20.70;83.30
12460;DHT22;6295;49.452;8.466;2022-07-05T23:42:04;20.70;83.90
12460;DHT22;6295;49.452;8.466;2022-07-05T23:46:08;20.60;85.20
12460;DHT22;6295;49.452;8.466;2022-07-05T23:50:10;20.60;85.20
12460;DHT22;6295;49.452;8.466;2022-07-05T23:54:12;20.60;86.60
12460;DHT22;6295;49.452;8.466;2022-07-05T23:58:14;20.50;87.00
